Time;durP1;ratioP1;P1;durP2;ratioP2;P2;SDS_P1;SDS_P2;PMS_P1;PMS_P2;Temp;Humidity;BMP_temperature;BMP_pressure;BME280_temperature;BME280_humidity;BME280_pressure;Samples;Min_cycle;Max_cycle;Signal;HPM_P1;HPM_P2
2021/01/31 00:00:20;;;;;;;10.07;8.47;;;;;;;2.33;100.00;96961.00;4927321;28;103999;-71
2021/01/31 00:02:47;;;;;;;8.03;7.23;;;;;;;2.18;100.00;96959.44;4928769;28;103986;-71
2021/01/31 00:05:15;;;;;;;9.20;8.30;;;;;;;2.25;100.00;96961.53;4929262;28;102895;-71
2021/01/31 00:07:42;;;;;;;8.97;7.90;;;;;;;2.22;100.00;96966.94;4929278;28;103238;-71
2021/01/31 00:10:12;;;;;;;9.03;8.13;;;;;;;2.23;100.00;96962.56;4928187;28;104434;-71
2021/01/31 00:12:39;;;;;;;8.67;7.63;;;;;;;2.18;100.00;96965.50;4927987;28;103780;-71
2021/01/31 00:15:09;;;;;;;8.40;7.50;;;;;;;2.24;100.00;96959.03;4928811;28;102708;-71
2021/01/31 00:17:36;;;;;;;9.60;8.60;;;;;;;2.28;100.00;96963.09;4929360;28;102874;-71
2021/01/31 00:20:05;;;;;;;9.80;8.80;;;;;;;2.26;100.00;96962.38;4928208;28;103972;-71
2021/01/31 00:22:32;;;;;;;9.13;8.23;;;;;;;2.27;100.00;96957.03;4928301;28;109843;-71
2021/01/31 00:24:59;;;;;;;8.80;7.90;;;;;;;2.20;100.00;96960.16;4925391;28;103259;-71
2021/01/31 00:27:26;;;;;;;9.87;8.57;;;;;;;2.23;100.00;96960.81;4928188;28;102892;-72
2021/01/31 00:29:54;;;;;;;9.10;8.20;;;;;;;2.24;100.00;96967.69;4927753;28;103729;-71
2021/01/31 00:32:23;;;;;;;9.27;8.10;;;;;;;2.14;100.00;96966.63;4910930;28;105114;-71
2021/01/31 00:34:51;;;;;;;8.20;7.30;;;;;;;2.11;100.00;96974.63;4911421;28;102975;-71
2021/01/31 00:37:19;;;;;;;8.87;7.80;;;;;;;2.14;100.00;96976.19;4928812;28;102865;-71
2021/01/31 00:39:47;;;;;;;8.93;8.03;;;;;;;2.18;100.00;96968.09;4927786;28;104306;-72
2021/01/31 00:42:16;;;;;;;9.90;8.60;;;;;;;2.12;100.00;96976.31;4927803;28;103199;-71
2021/01/31 00:44:49;;;;;;;10.53;9.40;;;;;;;2.08;100.00;96971.38;4910447;28;103245;-71
2021/01/31 00:47:19;;;;;;;10.17;9.13;;;;;;;2.15;100.00;96973.50;4907661;28;103519;-71
2021/01/31 00:49:48;;;;;;;9.77;8.77;;;;;;;2.07;100.00;96965.38;4907278;28;104883;-71
2021/01/31 00:52:16;;;;;;;10.10;8.67;;;;;;;2.10;100.00;96978.19;4910188;28;103230;-71
2021/01/31 00:54:44;;;;;;;9.37;8.03;;;;;;;2.00;100.00;96968.44;4911220;28;103091;-71
2021/01/31 00:57:13;;;;;;;10.17;8.70;;;;;;;2.10;100.00;96974.75;4910354;28;103159;-71
2021/01/31 00:59:40;;;;;;;10.80;8.63;;;;;;;2.06;100.00;96976.69;4910525;28;104254;-71
2021/01/31 01:02:10;;;;;;;12.00;9.10;;;;;;;2.16;100.00;96974.34;4909004;28;103743;-71
2021/01/31 01:04:39;;;;;;;10.90;9.13;;;;;;;1.94;100.00;96980.09;4911121;28;102579;-71
2021/01/31 01:07:10;;;;;;;11.70;10.43;;;;;;;1.93;100.00;96978.44;4928704;28;103183;-71
2021/01/31 01:09:37;;;;;;;10.87;9.77;;;;;;;2.01;100.00;96976.19;4909776;28;105167;-71
2021/01/31 01:12:05;;;;;;;11.73;10.27;;;;;;;1.95;100.00;96973.13;4928176;28;103927;-71
2021/01/31 01:14:33;;;;;;;10.77;9.60;;;;;;;1.94;100.00;96976.69;4925140;28;103096;-71
2021/01/31 01:17:01;;;;;;;10.57;8.87;;;;;;;1.99;100.00;96982.44;4927816;28;103227;-71
2021/01/31 01:19:28;;;;;;;10.13;9.13;;;;;;;1.92;100.00;96986.34;4927452;28;104088;-72
2021/01/31 01:21:56;;;;;;;11.20;8.80;;;;;;;2.04;100.00;96983.78;4921883;28;104189;-71
2021/01/31 01:24:24;;;;;;;10.47;9.03;;;;;;;1.98;100.00;96984.19;4921067;28;103460;-71
2021/01/31 01:26:51;;;;;;;10.53;9.00;;;;;;;1.99;100.00;96990.25;4927732;28;102971;-71
2021/01/31 01:29:18;;;;;;;11.03;8.70;;;;;;;1.97;100.00;96994.69;4892946;28;106287;-71
2021/01/31 01:31:47;;;;;;;10.83;9.43;;;;;;;2.08;100.00;96997.44;4910605;28;107013;-71
2021/01/31 01:34:15;;;;;;;10.43;9.40;;;;;;;2.06;100.00;96988.88;4907168;28;103052;-71
2021/01/31 01:36:43;;;;;;;13.37;10.30;;;;;;;1.99;100.00;96982.44;4908353;28;103006;-71
2021/01/31 01:39:11;;;;;;;12.13;10.40;;;;;;;1.96;100.00;96993.03;4914287;28;103969;-71
2021/01/31 01:41:39;;;;;;;11.97;9.93;;;;;;;2.13;100.00;96992.78;4926847;28;103845;-71
2021/01/31 01:44:07;;;;;;;11.30;9.50;;;;;;;2.00;100.00;96989.28;4927307;28;102935;-71
2021/01/31 01:46:38;;;;;;;11.97;9.63;;;;;;;1.93;100.00;96993.22;4926964;28;102980;-71
2021/01/31 01:49:13;;;;;;;11.43;10.10;;;;;;;2.02;100.00;96995.25;4910062;28;103480;-71
2021/01/31 01:51:44;;;;;;;11.50;10.27;;;;;;;1.95;100.00;96992.19;4927035;28;105138;-71
2021/01/31 01:54:16;;;;;;;12.27;10.97;;;;;;;2.08;100.00;96994.81;4927131;28;102933;-71
2021/01/31 01:56:49;;;;;;;16.23;12.53;;;;;;;2.10;100.00;96992.97;4928292;28;102870;-71
2021/01/31 01:59:16;;;;;;;15.17;11.43;;;;;;;2.01;100.00;96997.00;4925091;28;104414;-71
2021/01/31 02:01:49;;;;;;;14.83;10.80;;;;;;;2.02;100.00;97000.47;4920611;28;105492;-71
2021/01/31 02:04:16;;;;;;;15.53;10.87;;;;;;;2.07;100.00;97011.41;4917050;28;104200;-71
2021/01/31 02:06:44;;;;;;;15.20;12.07;;;;;;;2.02;100.00;97009.09;4913864;28;103282;-71
2021/01/31 02:09:12;;;;;;;14.90;12.43;;;;;;;2.15;100.00;97003.94;4907525;28;104200;-72
2021/01/31 02:11:39;;;;;;;14.70;11.80;;;;;;;1.96;100.00;97008.66;4925231;28;103807;-71
2021/01/31 02:14:10;;;;;;;12.97;11.57;;;;;;;2.08;100.00;97000.88;4910040;28;103207;-71
2021/01/31 02:16:49;;;;;;;17.90;12.63;;;;;;;2.09;100.00;96999.94;4923947;28;103080;-71
2021/01/31 02:19:38;;;;;;;12.93;10.80;;;;;;;2.00;100.00;96999.69;4917270;28;110722;-71
2021/01/31 02:22:41;;;;;;;13.10;11.13;;;;;;;1.92;100.00;97007.19;4926923;28;103545;-71
2021/01/31 02:25:43;;;;;;;14.33;11.33;;;;;;;2.11;100.00;97007.66;4924998;28;103472;-71
2021/01/31 02:28:33;;;;;;;12.87;10.37;;;;;;;2.00;100.00;97020.53;4913622;28;103182;-71
2021/01/31 02:31:33;;;;;;;13.47;10.43;;;;;;;2.00;100.00;97023.97;4922375;28;104481;-71
2021/01/31 02:34:04;;;;;;;13.37;10.73;;;;;;;2.02;100.00;97023.91;4920128;28;103691;-71
2021/01/31 02:36:39;;;;;;;12.93;9.67;;;;;;;1.91;100.00;97034.19;4926560;28;102932;-71
2021/01/31 02:39:16;;;;;;;11.73;10.03;;;;;;;1.98;100.00;97035.44;4926916;28;102865;-71
2021/01/31 02:41:51;;;;;;;13.17;10.37;;;;;;;1.87;100.00;97030.06;4926129;28;104760;-71
2021/01/31 02:44:23;;;;;;;14.63;11.13;;;;;;;1.86;100.00;97034.44;4926110;28;104239;-71
2021/01/31 02:46:54;;;;;;;14.43;12.27;;;;;;;1.95;100.00;97040.84;4909279;28;102894;-71
2021/01/31 02:49:25;;;;;;;14.63;11.10;;;;;;;1.83;100.00;97036.41;4926659;28;103068;-71
2021/01/31 02:52:01;;;;;;;13.50;10.23;;;;;;;1.80;100.00;97031.41;4925694;28;103935;-71
2021/01/31 02:54:34;;;;;;;13.00;10.93;;;;;;;1.86;100.00;97039.66;4908619;28;106204;-71
2021/01/31 02:57:05;;;;;;;13.30;10.80;;;;;;;1.81;100.00;97036.50;4925233;28;103014;-71
2021/01/31 02:59:39;;;;;;;12.83;11.47;;;;;;;1.89;100.00;97036.84;4926002;28;102535;-71
2021/01/31 03:02:13;;;;;;;13.07;11.17;;;;;;;1.97;100.00;97041.56;4917902;28;103947;-71
2021/01/31 03:04:47;;;;;;;11.53;10.33;;;;;;;1.73;100.00;97046.56;4888002;28;106239;-71
2021/01/31 03:07:18;;;;;;;13.73;10.63;;;;;;;1.84;100.00;97045.91;4908921;28;102946;-71
2021/01/31 03:09:50;;;;;;;12.00;10.40;;;;;;;1.89;100.00;97043.84;4910026;28;104678;-71
2021/01/31 03:12:23;;;;;;;11.70;10.50;;;;;;;1.94;100.00;97047.81;4925764;28;105253;-71
2021/01/31 03:14:56;;;;;;;12.63;10.03;;;;;;;1.73;100.00;97044.81;4926503;28;103695;-71
2021/01/31 03:17:29;;;;;;;10.57;9.13;;;;;;;1.63;100.00;97048.91;4925963;28;103007;-71
2021/01/31 03:20:04;;;;;;;14.50;10.30;;;;;;;1.73;100.00;97047.41;4924905;28;102782;-71
2021/01/31 03:22:38;;;;;;;12.60;10.67;;;;;;;1.80;100.00;97039.22;4922010;28;103287;-70
2021/01/31 03:25:11;;;;;;;11.87;10.20;;;;;;;1.89;100.00;97043.84;4910832;28;104276;-70
2021/01/31 03:27:41;;;;;;;11.67;9.90;;;;;;;1.95;100.00;97046.03;4929841;28;102874;-71
2021/01/31 03:30:11;;;;;;;11.67;10.30;;;;;;;1.95;100.00;97038.22;4928750;28;102959;-71
2021/01/31 03:32:45;;;;;;;12.87;11.30;;;;;;;1.91;100.00;97047.19;4911456;28;107439;-71
2021/01/31 03:35:19;;;;;;;12.40;11.10;;;;;;;1.90;100.00;97045.50;4929456;28;103900;-71
2021/01/31 03:37:53;;;;;;;12.40;10.57;;;;;;;1.65;100.00;97049.69;4928995;28;102918;-71
2021/01/31 03:40:22;;;;;;;13.93;11.00;;;;;;;1.46;100.00;97043.91;4921877;28;102566;-71
2021/01/31 03:42:50;;;;;;;14.13;11.87;;;;;;;1.63;100.00;97048.91;4928921;28;103968;-71
2021/01/31 03:45:23;;;;;;;15.57;11.73;;;;;;;1.45;100.00;97047.47;4928425;28;104727;-71
2021/01/31 03:47:57;;;;;;;13.63;12.00;;;;;;;1.50;100.00;97039.38;4927986;28;102643;-71
2021/01/31 03:50:26;;;;;;;13.80;11.37;;;;;;;1.45;100.00;97039.66;4929767;28;102492;-71
2021/01/31 03:52:53;;;;;;;15.93;12.77;;;;;;;1.67;100.00;97046.97;4929179;28;103836;-71
2021/01/31 03:55:20;;;;;;;14.13;12.57;;;;;;;1.47;100.00;97058.63;4928635;28;103804;-71
2021/01/31 03:57:51;;;;;;;14.97;11.73;;;;;;;1.55;100.00;97064.19;4911553;28;103271;-71
2021/01/31 04:00:23;;;;;;;13.97;12.37;;;;;;;1.56;100.00;97067.63;4928427;28;102858;-71
2021/01/31 04:02:56;;;;;;;16.20;12.27;;;;;;;1.66;100.00;97069.53;4928917;28;103316;-71
2021/01/31 04:05:27;;;;;;;13.97;12.43;;;;;;;1.64;100.00;97081.84;4911949;28;104499;-71
2021/01/31 04:07:57;;;;;;;14.97;11.73;;;;;;;1.63;100.00;97090.56;4929032;28;102859;-71
2021/01/31 04:10:24;;;;;;;16.80;12.40;;;;;;;1.82;100.00;97094.63;4928671;28;102931;-70
2021/01/31 04:12:54;;;;;;;13.67;11.70;;;;;;;1.77;100.00;97094.09;4927347;28;108487;-71
2021/01/31 04:15:39;;;;;;;15.23;12.23;;;;;;;1.82;100.00;97099.84;4928112;28;104562;-71
2021/01/31 04:18:06;;;;;;;15.33;12.27;;;;;;;1.81;100.00;97100.78;4928762;28;103008;-71
2021/01/31 04:20:34;;;;;;;13.13;10.10;;;;;;;1.83;100.00;97098.91;4911364;28;103271;-71
2021/01/31 04:23:02;;;;;;;13.17;10.37;;;;;;;1.84;100.00;97096.22;4925920;28;103986;-71
2021/01/31 04:25:29;;;;;;;14.60;11.23;;;;;;;1.90;100.00;97093.22;4928236;28;104277;-71
2021/01/31 04:27:57;;;;;;;14.37;11.07;;;;;;;1.88;100.00;97097.69;4909127;28;102716;-71
2021/01/31 04:30:24;;;;;;;14.63;12.23;;;;;;;1.77;100.00;97087.94;4928553;28;103006;-71
2021/01/31 04:32:51;;;;;;;13.30;11.90;;;;;;;1.79;100.00;97094.81;4928135;28;103325;-71
2021/01/31 04:35:19;;;;;;;13.67;12.23;;;;;;;1.90;100.00;97092.38;4910401;28;106363;-71
2021/01/31 04:37:47;;;;;;;14.77;12.50;;;;;;;1.83;100.00;97093.69;4927162;28;102616;-71
2021/01/31 04:40:17;;;;;;;12.57;11.20;;;;;;;1.63;100.00;97093.16;4928514;28;102726;-71
2021/01/31 04:42:45;;;;;;;14.60;11.83;;;;;;;1.71;100.00;97085.72;4927904;28;103940;-71
2021/01/31 04:45:14;;;;;;;13.23;11.30;;;;;;;1.64;100.00;97092.25;4928113;28;104259;-71
2021/01/31 04:48:03;;;;;;;14.60;11.37;;;;;;;1.63;100.00;97093.16;4910436;28;102865;-71
2021/01/31 04:50:35;;;;;;;13.53;12.00;;;;;;;1.57;100.00;97084.91;4928410;28;103070;-71
2021/01/31 04:53:17;;;;;;;14.27;12.10;;;;;;;1.67;100.00;97083.41;4910813;28;106245;-71
2021/01/31 04:56:13;;;;;;;13.40;11.57;;;;;;;1.66;100.00;97079.13;4928361;28;103701;-71
2021/01/31 04:58:46;;;;;;;13.07;11.70;;;;;;;1.70;100.00;97091.03;4916924;28;102912;-70
2021/01/31 05:01:22;;;;;;;12.97;11.47;;;;;;;1.47;100.00;97079.44;4927686;28;104029;-70
2021/01/31 05:03:56;;;;;;;12.70;10.07;;;;;;;1.54;100.00;97077.31;4926581;28;104519;-71
2021/01/31 05:06:25;;;;;;;13.33;11.07;;;;;;;1.53;100.00;97076.47;4928254;28;104671;-71
2021/01/31 05:08:54;;;;;;;12.83;10.90;;;;;;;1.45;100.00;97076.09;4927815;28;102600;-71
2021/01/31 05:11:28;;;;;;;12.30;10.77;;;;;;;1.50;100.00;97075.81;4928244;28;102718;-71
2021/01/31 05:14:05;;;;;;;14.87;12.67;;;;;;;1.56;100.00;97078.88;4927782;28;104272;-71
2021/01/31 05:16:32;;;;;;;15.13;11.47;;;;;;;1.48;100.00;97072.47;4926543;28;103778;-71
2021/01/31 05:19:02;;;;;;;11.80;9.83;;;;;;;1.65;100.00;97073.09;4928154;28;103121;-71
2021/01/31 05:21:32;;;;;;;12.93;10.50;;;;;;;1.54;100.00;97065.13;4927789;28;103041;-72
2021/01/31 05:24:04;;;;;;;14.50;12.97;;;;;;;1.51;100.00;97080.94;4924075;28;104502;-71
2021/01/31 05:26:37;;;;;;;14.27;12.47;;;;;;;1.56;100.00;97078.88;4927316;28;103885;-71
2021/01/31 05:29:09;;;;;;;13.67;11.10;;;;;;;1.63;100.00;97074.94;4913044;28;104123;-71
2021/01/31 05:31:37;;;;;;;13.53;11.40;;;;;;;1.56;100.00;97081.47;4927062;28;105081;-71
2021/01/31 05:34:04;;;;;;;12.77;10.70;;;;;;;1.51;100.00;97086.13;4927199;28;104599;-71
2021/01/31 05:36:33;;;;;;;14.73;12.03;;;;;;;1.48;100.00;97080.28;4927512;28;104365;-71
2021/01/31 05:39:02;;;;;;;14.67;12.17;;;;;;;1.45;100.00;97083.91;4927374;28;102988;-70
2021/01/31 05:41:43;;;;;;;15.90;11.60;;;;;;;1.61;100.00;97089.84;4927612;28;102963;-71
2021/01/31 05:44:23;;;;;;;11.97;10.77;;;;;;;1.88;100.00;97091.66;4927643;28;104586;-71
2021/01/31 05:46:52;;;;;;;11.47;9.67;;;;;;;2.02;100.00;97096.84;4926159;28;103871;-71
2021/01/31 05:49:36;;;;;;;13.23;10.50;;;;;;;2.05;100.00;97091.44;4927720;28;102915;-71
2021/01/31 05:52:09;;;;;;;13.37;10.23;;;;;;;1.97;100.00;97096.25;4908208;28;102939;-71
2021/01/31 05:54:38;;;;;;;12.10;9.93;;;;;;;1.83;100.00;97096.28;4907192;28;104312;-71
2021/01/31 05:57:22;;;;;;;13.73;10.03;;;;;;;1.83;100.00;97107.56;4908109;28;104065;-71
2021/01/31 05:59:49;;;;;;;11.37;9.70;;;;;;;2.00;100.00;97109.94;4911285;28;102868;-72
2021/01/31 06:02:21;;;;;;;11.77;10.00;;;;;;;2.18;100.00;97100.13;4926276;28;103346;-72
2021/01/31 06:04:49;;;;;;;11.17;10.03;;;;;;;2.15;100.00;97108.97;4926514;28;104584;-74
2021/01/31 06:07:19;;;;;;;13.97;11.30;;;;;;;2.07;100.00;97111.25;4926736;28;104258;-72
2021/01/31 06:09:50;;;;;;;12.27;10.50;;;;;;;2.07;100.00;97106.03;4909306;28;103339;-73
2021/01/31 06:12:25;;;;;;;10.93;9.60;;;;;;;2.22;100.00;97106.81;4925492;28;103011;-74
2021/01/31 06:15:04;;;;;;;11.67;10.47;;;;;;;2.20;100.00;97114.72;4926704;28;103955;-73
2021/01/31 06:17:33;;;;;;;11.73;10.27;;;;;;;1.98;100.00;97126.59;4926333;28;103724;-73
2021/01/31 06:20:03;;;;;;;11.30;9.40;;;;;;;2.07;100.00;97131.25;4923389;28;102998;-73
2021/01/31 06:22:39;;;;;;;10.57;9.40;;;;;;;2.20;100.00;97126.91;4925044;28;103050;-73
2021/01/31 06:25:13;;;;;;;11.37;10.07;;;;;;;2.08;100.00;97128.53;4924509;28;103326;-72
2021/01/31 06:27:42;;;;;;;12.83;10.30;;;;;;;1.97;100.00;97136.16;4925832;28;104791;-76
2021/01/31 06:30:18;;;;;;;11.60;10.07;;;;;;;2.04;100.00;97136.63;4885791;28;102882;-74
2021/01/31 06:32:47;;;;;;;11.10;9.77;;;;;;;2.08;100.00;97132.88;4909635;28;103175;-76
2021/01/31 06:35:17;;;;;;;11.37;10.20;;;;;;;2.21;100.00;97128.59;4909368;28;106602;-75
2021/01/31 06:37:59;;;;;;;11.10;10.00;;;;;;;2.03;100.00;97127.97;4927306;28;103913;-75
2021/01/31 06:40:36;;;;;;;11.80;10.17;;;;;;;2.13;100.00;97136.06;4927381;28;102906;-74
2021/01/31 06:43:13;;;;;;;11.87;10.67;;;;;;;2.11;100.00;97137.91;4927210;28;103070;-77
2021/01/31 06:45:45;;;;;;;12.53;10.43;;;;;;;2.02;100.00;97133.31;4923977;28;103736;-75
2021/01/31 06:48:41;;;;;;;11.83;10.63;;;;;;;1.92;100.00;97148.66;4926627;28;103137;-72
2021/01/31 06:51:39;;;;;;;12.40;11.10;;;;;;;1.83;100.00;97153.59;4925287;28;102843;-75
2021/01/31 06:54:32;;;;;;;12.27;10.50;;;;;;;1.83;100.00;97146.59;4925151;28;103224;-76
2021/01/31 06:57:18;;;;;;;12.27;10.80;;;;;;;1.70;100.00;97143.94;4924875;28;103935;-75
2021/01/31 07:00:07;;;;;;;11.80;10.20;;;;;;;1.81;100.00;97160.66;4926270;28;104298;-76
2021/01/31 07:02:58;;;;;;;11.23;9.50;;;;;;;1.79;100.00;97178.16;4918848;28;102583;-76
2021/01/31 07:05:36;;;;;;;11.93;9.83;;;;;;;1.76;100.00;97171.38;4913192;28;102919;-76
2021/01/31 07:08:36;;;;;;;12.73;8.90;;;;;;;1.93;100.00;97175.53;4909788;28;103771;-80
2021/01/31 07:11:14;;;;;;;11.03;9.17;;;;;;;1.94;100.00;97178.03;4920847;28;103791;-72
2021/01/31 07:13:59;;;;;;;13.60;10.10;;;;;;;1.79;100.00;97178.16;4913678;28;103031;-72
2021/01/31 07:16:34;;;;;;;13.00;11.13;;;;;;;1.75;100.00;97186.16;4891859;28;102746;-72
2021/01/31 07:19:12;;;;;;;12.07;10.73;;;;;;;1.79;100.00;97191.16;4918005;28;103921;-72
2021/01/31 07:21:45;;;;;;;13.63;11.40;;;;;;;1.82;100.00;97181.41;4907939;28;106645;-72
2021/01/31 07:24:20;;;;;;;12.83;10.37;;;;;;;1.81;100.00;97186.69;4909258;28;102989;-73
2021/01/31 07:26:51;;;;;;;11.77;9.77;;;;;;;1.74;100.00;97194.88;4917392;28;102565;-73
2021/01/31 07:29:28;;;;;;;15.63;11.60;;;;;;;1.93;100.00;97191.16;4924174;28;106356;-77
2021/01/31 07:31:55;;;;;;;12.13;10.80;;;;;;;1.98;100.00;97194.31;4925462;28;103773;-81
2021/01/31 07:34:26;;;;;;;13.97;11.87;;;;;;;2.06;100.00;97192.06;4904166;28;103254;-73
2021/01/31 07:37:08;;;;;;;12.80;11.40;;;;;;;1.92;100.00;97192.09;4918757;28;103215;-72
2021/01/31 07:40:01;;;;;;;13.27;11.40;;;;;;;1.94;100.00;97193.66;4910069;28;103761;-72
2021/01/31 07:42:30;;;;;;;11.67;10.47;;;;;;;1.91;100.00;97198.25;4905369;28;104494;-71
2021/01/31 07:45:01;;;;;;;13.83;11.07;;;;;;;1.84;100.00;97205.59;4924249;28;103060;-72
2021/01/31 07:47:29;;;;;;;12.17;10.87;;;;;;;1.94;100.00;97200.66;4911943;28;103079;-71
2021/01/31 07:50:19;;;;;;;14.83;12.27;;;;;;;1.94;100.00;97198.06;4915078;28;103938;-72
2021/01/31 07:52:52;;;;;;;14.13;11.23;;;;;;;2.24;100.00;97185.72;4920207;28;103688;-71
2021/01/31 07:55:27;;;;;;;11.50;10.10;;;;;;;2.28;100.00;97195.00;4918742;28;103152;-73
2021/01/31 07:58:10;;;;;;;13.40;10.73;;;;;;;2.38;100.00;97201.34;4911789;28;103857;-72
2021/01/31 08:00:43;;;;;;;11.80;10.53;;;;;;;2.15;100.00;97199.31;4914800;28;104925;-73
2021/01/31 08:03:23;;;;;;;13.57;11.33;;;;;;;2.36;100.00;97194.56;4906258;28;103853;-72
2021/01/31 08:05:54;;;;;;;12.57;10.37;;;;;;;2.14;100.00;97211.50;4914736;28;103058;-73
2021/01/31 08:08:44;;;;;;;12.10;10.47;;;;;;;2.03;100.00;97200.91;4921987;28;103065;-72
2021/01/31 08:11:28;;;;;;;12.37;11.13;;;;;;;2.32;100.00;97199.09;4922546;28;104345;-72
2021/01/31 08:13:55;;;;;;;12.73;11.43;;;;;;;2.54;100.00;97202.03;4923613;28;103184;-71
2021/01/31 08:16:54;;;;;;;11.40;9.87;;;;;;;2.80;100.00;97206.41;4907981;28;103904;-72
2021/01/31 08:19:29;;;;;;;12.23;10.70;;;;;;;2.25;100.00;97213.44;4919984;28;103023;-77
2021/01/31 08:21:59;;;;;;;12.93;11.53;;;;;;;2.47;100.00;97218.16;4918721;28;103876;-73
2021/01/31 08:25:01;;;;;;;11.00;9.90;;;;;;;2.72;100.00;97208.66;4924291;28;105330;-73
2021/01/31 08:27:49;;;;;;;12.23;10.93;;;;;;;2.82;100.00;97209.75;4925215;28;102953;-73
2021/01/31 08:30:26;;;;;;;11.50;10.27;;;;;;;2.63;100.00;97209.28;4923760;28;104607;-73
2021/01/31 08:33:27;;;;;;;12.07;10.87;;;;;;;2.64;100.00;97210.13;4895353;28;106373;-74
2021/01/31 08:36:07;;;;;;;11.60;10.37;;;;;;;2.59;100.00;97213.00;4903430;28;103829;-74
2021/01/31 08:38:48;;;;;;;10.77;9.73;;;;;;;2.54;100.00;97217.66;4916606;28;103205;-75
2021/01/31 08:41:34;;;;;;;12.37;11.00;;;;;;;2.54;100.00;97216.81;4921551;28;103115;-78
2021/01/31 08:44:34;;;;;;;12.50;10.77;;;;;;;2.61;100.00;97223.34;4887404;28;109087;-83
2021/01/31 08:47:04;;;;;;;11.87;10.67;;;;;;;2.70;100.00;97227.94;4916114;28;104167;-78
2021/01/31 08:49:32;;;;;;;12.30;11.00;;;;;;;2.58;100.00;97221.78;4918115;28;103259;-81
2021/01/31 08:52:01;;;;;;;11.37;9.53;;;;;;;2.97;100.00;97218.38;4920199;28;103193;-81
2021/01/31 08:54:29;;;;;;;11.73;10.53;;;;;;;2.95;100.00;97229.84;4888077;28;105029;-80
2021/01/31 08:56:57;;;;;;;10.50;9.50;;;;;;;3.14;100.00;97225.09;4891981;28;106909;-77
2021/01/31 08:59:28;;;;;;;9.27;8.37;;;;;;;3.30;100.00;97230.97;4914169;28;103259;-80
2021/01/31 09:02:06;;;;;;;11.27;10.07;;;;;;;3.26;99.94;97227.72;4919119;28;103566;-79
2021/01/31 09:04:34;;;;;;;9.43;8.53;;;;;;;3.03;100.00;97238.00;4919502;28;103163;-79
2021/01/31 09:07:02;;;;;;;9.73;8.73;;;;;;;3.12;100.00;97232.16;4920261;28;103147;-79
2021/01/31 09:09:37;;;;;;;9.20;8.30;;;;;;;3.30;99.14;97230.97;4920075;28;103204;-79
2021/01/31 09:12:07;;;;;;;9.30;8.40;;;;;;;2.97;98.81;97233.19;4894775;28;103226;-82
2021/01/31 09:14:36;;;;;;;8.60;7.77;;;;;;;3.10;97.68;97236.66;4921716;28;104379;-79
2021/01/31 09:17:06;;;;;;;8.10;7.40;;;;;;;3.30;98.32;97241.41;4917784;28;103634;-77
2021/01/31 09:19:34;;;;;;;8.53;7.67;;;;;;;3.30;97.85;97251.84;4918527;28;103236;-81
2021/01/31 09:22:04;;;;;;;8.50;7.73;;;;;;;2.88;98.28;97255.47;4922092;28;103139;-77
2021/01/31 09:24:35;;;;;;;9.47;8.57;;;;;;;3.18;98.71;97250.03;4920023;28;110657;-85
2021/01/31 09:27:05;;;;;;;8.87;7.97;;;;;;;3.14;97.26;97235.53;4910214;28;104253;-76
2021/01/31 09:29:34;;;;;;;8.80;8.00;;;;;;;3.24;97.46;97247.03;4921933;28;102886;-80
2021/01/31 09:32:09;;;;;;;9.07;8.20;;;;;;;3.25;97.95;97254.78;4920392;28;103052;-77
2021/01/31 09:34:40;;;;;;;8.80;8.00;;;;;;;3.02;99.24;97251.97;4904392;28;103431;-79
2021/01/31 09:37:10;;;;;;;9.43;8.43;;;;;;;3.25;98.18;97253.94;4903996;28;103697;-80
2021/01/31 09:39:39;;;;;;;8.50;7.70;;;;;;;3.37;98.07;97248.72;4921802;28;103168;-82
2021/01/31 09:42:07;;;;;;;9.33;8.43;;;;;;;3.35;97.20;97244.53;4911927;28;103379;-79
2021/01/31 09:44:36;;;;;;;9.60;8.60;;;;;;;3.39;97.07;97248.63;4921209;28;103506;-79
2021/01/31 09:47:05;;;;;;;8.67;7.87;;;;;;;3.42;97.32;97256.25;4899106;28;103411;-80
2021/01/31 09:49:33;;;;;;;8.93;8.13;;;;;;;3.49;96.57;97258.34;4920819;28;103358;-79
2021/01/31 09:52:08;;;;;;;9.10;8.30;;;;;;;3.49;97.05;97262.75;4921210;28;103288;-80
2021/01/31 09:54:36;;;;;;;9.30;8.40;;;;;;;3.28;96.61;97269.38;4905641;28;103862;-79
2021/01/31 09:57:07;;;;;;;10.33;8.67;;;;;;;3.23;98.10;97266.25;4908632;28;104563;-80
2021/01/31 09:59:36;;;;;;;9.10;8.23;;;;;;;3.26;97.02;97264.25;4927712;28;102734;-78
2021/01/31 10:02:08;;;;;;;9.70;8.80;;;;;;;3.61;98.42;97261.94;4917197;28;102524;-77
2021/01/31 10:04:37;;;;;;;9.53;8.63;;;;;;;3.84;96.88;97253.38;4923604;28;104586;-73
2021/01/31 10:07:11;;;;;;;8.87;8.03;;;;;;;3.79;97.24;97260.69;4905224;28;104863;-74
2021/01/31 10:09:41;;;;;;;7.63;6.97;;;;;;;3.86;96.44;97250.66;4917505;28;103937;-76
2021/01/31 10:12:16;;;;;;;9.77;8.87;;;;;;;3.78;95.55;97243.34;4916805;28;104580;-75
2021/01/31 10:14:45;;;;;;;9.20;8.30;;;;;;;3.69;94.54;97233.53;4916815;28;104589;-75
2021/01/31 10:17:15;;;;;;;9.60;8.70;;;;;;;3.74;95.12;97230.59;4918291;28;103239;-74
2021/01/31 10:19:44;;;;;;;9.80;8.90;;;;;;;3.67;95.36;97243.25;4919142;28;103479;-74
2021/01/31 10:22:20;;;;;;;9.30;8.40;;;;;;;3.81;94.91;97239.69;4917080;28;102741;-74
2021/01/31 10:24:49;;;;;;;9.17;8.37;;;;;;;3.85;95.53;97239.38;4917370;28;105321;-75
2021/01/31 10:27:26;;;;;;;9.57;8.67;;;;;;;3.96;95.45;97229.00;4916063;28;110276;-75
2021/01/31 10:29:55;;;;;;;8.27;7.57;;;;;;;4.39;95.65;97224.25;4921341;28;102989;-74
2021/01/31 10:32:38;;;;;;;8.87;8.03;;;;;;;4.29;94.46;97225.84;4920678;28;103175;-74
2021/01/31 10:35:30;;;;;;;9.50;8.60;;;;;;;3.94;92.90;97228.28;4917485;28;105730;-74
2021/01/31 10:38:21;;;;;;;8.63;7.83;;;;;;;4.08;93.76;97222.94;4902420;28;103689;-75
2021/01/31 10:40:49;;;;;;;10.20;9.23;;;;;;;4.07;93.98;97234.34;4908896;28;103040;-77
2021/01/31 10:43:18;;;;;;;9.43;8.53;;;;;;;3.79;93.94;97237.16;4907511;28;103235;-75
2021/01/31 10:45:45;;;;;;;10.00;9.00;;;;;;;4.07;95.26;97234.34;4905021;28;103517;-75
2021/01/31 10:48:13;;;;;;;9.27;8.37;;;;;;;4.10;94.78;97234.13;4907265;28;103687;-78
2021/01/31 10:50:41;;;;;;;8.73;7.83;;;;;;;4.22;93.33;97245.50;4916694;28;103242;-78
2021/01/31 10:53:08;;;;;;;10.23;9.27;;;;;;;3.69;95.75;97238.75;4889905;28;102813;-75
2021/01/31 10:55:35;;;;;;;9.77;8.80;;;;;;;3.95;95.37;97244.81;4910780;28;102855;-74
2021/01/31 10:58:05;;;;;;;10.53;9.53;;;;;;;3.74;96.86;97236.66;4926156;28;104219;-75
2021/01/31 11:00:32;;;;;;;10.57;9.47;;;;;;;3.58;97.12;97222.13;4925463;28;102788;-75
2021/01/31 11:02:59;;;;;;;10.00;9.00;;;;;;;3.97;96.08;97222.84;4900577;28;103830;-77
2021/01/31 11:05:27;;;;;;;11.10;10.00;;;;;;;4.21;94.05;97224.72;4919927;28;103298;-75
2021/01/31 11:07:54;;;;;;;10.27;9.27;;;;;;;4.45;94.02;97220.38;4923836;28;104494;-74
2021/01/31 11:10:22;;;;;;;10.83;9.73;;;;;;;4.44;93.16;97216.06;4920384;28;102993;-75
2021/01/31 11:12:49;;;;;;;10.60;9.50;;;;;;;4.46;93.52;97208.97;4923848;28;104804;-74
2021/01/31 11:15:18;;;;;;;10.23;9.23;;;;;;;4.57;92.73;97201.19;4922463;28;103784;-74
2021/01/31 11:17:46;;;;;;;10.97;9.90;;;;;;;4.69;92.75;97195.91;4904924;28;105310;-74
2021/01/31 11:20:14;;;;;;;9.57;8.67;;;;;;;4.90;92.03;97198.75;4921329;28;103898;-73
2021/01/31 11:22:41;;;;;;;10.37;9.37;;;;;;;4.49;92.29;97211.38;4923254;28;103043;-73
2021/01/31 11:25:10;;;;;;;10.63;9.50;;;;;;;4.39;93.25;97212.94;4923092;28;103740;-76
2021/01/31 11:27:38;;;;;;;9.80;8.83;;;;;;;4.53;91.88;97212.81;4922850;28;103452;-74
2021/01/31 11:30:06;;;;;;;9.97;9.03;;;;;;;4.64;91.70;97215.50;4919809;28;105070;-73
2021/01/31 11:32:34;;;;;;;10.03;9.03;;;;;;;4.81;91.43;97215.13;4903270;28;104702;-77
2021/01/31 11:35:01;;;;;;;10.57;9.57;;;;;;;4.61;91.72;97218.31;4922406;28;104166;-79
2021/01/31 11:37:29;;;;;;;10.90;9.57;;;;;;;4.54;91.13;97217.09;4923015;28;104922;-76
2021/01/31 11:39:56;;;;;;;12.37;11.17;;;;;;;4.47;91.63;97215.84;4924177;28;102873;-74
2021/01/31 11:42:23;;;;;;;10.63;9.63;;;;;;;4.44;90.74;97214.28;4889613;28;102997;-72